createdAt,value
2022-09-22T00:01:37.950Z,1.87
2022-09-22T00:04:09.549Z,5.23
2022-09-22T00:06:40.999Z,1.90
2022-09-22T00:09:13.924Z,2.20
2022-09-22T00:11:44.816Z,2.30
2022-09-22T00:14:16.265Z,3.10
2022-09-22T00:16:46.734Z,2.20
2022-09-22T00:19:20.072Z,2.60
2022-09-22T00:21:49.070Z,3.97
2022-09-22T00:24:20.511Z,4.97
2022-09-22T00:26:48.523Z,2.90
2022-09-22T00:29:17.261Z,3.27
2022-09-22T00:31:46.573Z,4.63
2022-09-22T00:34:17.331Z,3.80
2022-09-22T00:36:46.142Z,3.30
2022-09-22T00:39:16.268Z,3.97
2022-09-22T00:41:49.288Z,4.33
2022-09-22T00:44:47.594Z,2.83
2022-09-22T00:47:36.557Z,2.97
2022-09-22T00:50:13.537Z,3.07
2022-09-22T00:52:48.483Z,3.07
2022-09-22T00:55:21.288Z,2.50
2022-09-22T00:57:51.558Z,4.87
2022-09-22T01:00:20.363Z,3.23
2022-09-22T01:02:51.398Z,3.03
2022-09-22T01:05:20.862Z,4.13
2022-09-22T01:07:49.725Z,2.77
2022-09-22T01:10:18.439Z,2.83
2022-09-22T01:12:58.610Z,2.87
2022-09-22T01:15:38.136Z,2.43
2022-09-22T01:18:20.459Z,2.93
2022-09-22T01:21:30.243Z,3.17
2022-09-22T01:24:47.324Z,3.63
2022-09-22T01:27:59.999Z,3.57
2022-09-22T01:30:37.869Z,2.47
2022-09-22T01:33:43.137Z,3.23
2022-09-22T01:36:25.399Z,2.17
2022-09-22T01:39:06.011Z,2.67
2022-09-22T01:41:54.700Z,1.97
2022-09-22T01:44:30.027Z,1.43
2022-09-22T01:47:05.645Z,3.10
2022-09-22T01:49:38.507Z,1.20
2022-09-22T01:52:12.936Z,1.97
2022-09-22T01:54:47.269Z,1.93
2022-09-22T01:57:21.845Z,2.93
2022-09-22T01:59:57.194Z,2.93
2022-09-22T02:02:32.810Z,1.90
2022-09-22T02:05:06.749Z,2.07
2022-09-22T02:07:39.740Z,1.50
2022-09-22T02:10:13.619Z,3.30
2022-09-22T02:12:41.797Z,2.27
2022-09-22T02:15:31.990Z,1.70
2022-09-22T02:18:08.130Z,2.13
2022-09-22T02:20:36.432Z,1.57
2022-09-22T02:23:04.532Z,2.57
2022-09-22T02:25:32.865Z,2.83
2022-09-22T02:28:01.553Z,1.63
2022-09-22T02:30:30.111Z,3.37
2022-09-22T02:33:00.144Z,1.50
2022-09-22T02:35:32.998Z,1.40
2022-09-22T02:38:07.013Z,6.10
2022-09-22T02:40:46.340Z,3.63
2022-09-22T02:43:22.563Z,2.87
2022-09-22T02:45:57.714Z,2.63
2022-09-22T02:48:28.467Z,2.30
2022-09-22T02:50:58.425Z,1.77
2022-09-22T02:53:26.462Z,1.97
2022-09-22T02:55:54.702Z,2.37
2022-09-22T02:58:22.667Z,3.10
2022-09-22T03:00:50.772Z,4.03
2022-09-22T03:03:18.804Z,4.17
2022-09-22T03:05:46.832Z,3.83
2022-09-22T03:08:16.169Z,4.93
2022-09-22T03:10:44.244Z,2.87
2022-09-22T03:13:17.080Z,2.60
2022-09-22T03:15:47.126Z,2.33
2022-09-22T03:18:15.452Z,2.00
2022-09-22T03:20:43.595Z,2.60
2022-09-22T03:23:11.874Z,2.10
2022-09-22T03:25:41.464Z,2.40
2022-09-22T03:28:09.523Z,4.40
2022-09-22T03:30:40.273Z,2.77
2022-09-22T03:33:08.427Z,1.93
2022-09-22T03:35:36.408Z,2.00
2022-09-22T03:38:04.563Z,3.70
2022-09-22T03:40:33.040Z,2.50
2022-09-22T03:43:02.506Z,2.77
2022-09-22T03:45:30.518Z,1.67
2022-09-22T03:47:58.975Z,5.63
2022-09-22T03:50:28.341Z,1.30
2022-09-22T03:52:57.867Z,1.77
2022-09-22T03:55:25.865Z,4.80
2022-09-22T03:57:53.901Z,2.70
2022-09-22T04:00:23.237Z,1.97
2022-09-22T04:02:51.406Z,3.17
2022-09-22T04:05:21.371Z,3.13
2022-09-22T04:07:49.341Z,2.77
2022-09-22T04:10:17.551Z,1.90
2022-09-22T04:12:45.578Z,2.00
2022-09-22T04:15:13.799Z,2.27
2022-09-22T04:17:43.164Z,2.83
2022-09-22T04:20:12.068Z,2.83
2022-09-22T04:22:40.441Z,4.37
2022-09-22T04:25:10.622Z,3.10
2022-09-22T04:27:38.591Z,10.87
2022-09-22T04:30:09.447Z,4.13
2022-09-22T04:32:37.476Z,3.80
2022-09-22T04:35:09.443Z,3.13
2022-09-22T04:37:37.408Z,5.03
2022-09-22T04:40:06.567Z,6.77
2022-09-22T04:42:34.590Z,3.13
2022-09-22T04:45:02.991Z,3.37
2022-09-22T04:47:31.403Z,3.77
2022-09-22T04:49:59.731Z,3.40
2022-09-22T04:52:29.094Z,3.67
2022-09-22T04:54:57.111Z,3.83
2022-09-22T04:57:25.282Z,3.03
2022-09-22T04:59:53.310Z,3.87
2022-09-22T05:02:21.315Z,3.87
2022-09-22T05:04:49.447Z,4.70
2022-09-22T05:07:17.439Z,4.80
2022-09-22T05:09:47.619Z,3.27
2022-09-22T05:12:15.637Z,2.83
2022-09-22T05:14:43.672Z,4.13
2022-09-22T05:17:11.739Z,4.73
2022-09-22T05:19:39.808Z,3.70
2022-09-22T05:22:07.844Z,2.47
2022-09-22T05:24:35.915Z,3.23
2022-09-22T05:27:05.877Z,3.40
2022-09-22T05:29:33.878Z,4.00
2022-09-22T05:32:02.881Z,5.43
2022-09-22T05:34:30.959Z,4.07
2022-09-22T05:36:58.962Z,6.10
2022-09-22T05:39:26.974Z,4.13
2022-09-22T05:41:54.985Z,4.83
2022-09-22T05:44:24.613Z,3.13
2022-09-22T05:46:52.696Z,3.00
2022-09-22T05:49:20.699Z,4.17
2022-09-22T05:51:48.708Z,4.83
2022-09-22T05:54:21.241Z,3.37
2022-09-22T05:56:51.191Z,2.83
2022-09-22T05:59:19.380Z,7.37
2022-09-22T06:01:48.903Z,3.43
2022-09-22T06:04:17.047Z,5.17
2022-09-22T06:06:45.055Z,5.37
2022-09-22T06:09:13.080Z,8.70
2022-09-22T06:11:41.056Z,7.53
2022-09-22T06:14:09.061Z,3.53
2022-09-22T06:16:37.098Z,6.13
2022-09-22T06:19:06.732Z,6.87
2022-09-22T06:21:35.097Z,6.67
2022-09-22T06:24:03.607Z,3.93
2022-09-22T06:26:31.773Z,6.57
2022-09-22T06:28:59.767Z,8.77
2022-09-22T06:31:27.817Z,3.93
2022-09-22T06:33:56.282Z,4.23
2022-09-22T06:36:31.492Z,7.40
2022-09-22T06:39:00.102Z,4.80
2022-09-22T06:41:29.715Z,6.43
2022-09-22T06:44:08.184Z,5.27
2022-09-22T06:46:36.572Z,5.33
2022-09-22T06:49:04.593Z,7.00
2022-09-22T06:51:35.950Z,4.80
2022-09-22T06:54:07.074Z,5.60
2022-09-22T06:56:39.780Z,5.00
2022-09-22T06:59:10.952Z,8.10
2022-09-22T07:01:40.229Z,7.47
2022-09-22T07:04:09.201Z,5.23
2022-09-22T07:06:40.519Z,5.60
2022-09-22T07:09:09.150Z,6.70
2022-09-22T07:11:40.018Z,7.87
2022-09-22T07:14:10.184Z,7.23
2022-09-22T07:16:39.935Z,6.07
2022-09-22T07:19:08.264Z,6.17
2022-09-22T07:21:37.669Z,9.30
2022-09-22T07:24:08.343Z,8.43
2022-09-22T07:26:39.075Z,6.73
2022-09-22T07:29:13.116Z,6.27
2022-09-22T07:31:41.805Z,7.33
2022-09-22T07:34:10.652Z,7.57
2022-09-22T07:36:40.866Z,4.43
2022-09-22T07:39:11.454Z,6.40
2022-09-22T07:41:43.633Z,4.43
2022-09-22T07:44:32.055Z,4.40
2022-09-22T07:47:00.938Z,6.30
2022-09-22T07:49:30.589Z,3.83
2022-09-22T07:51:59.935Z,5.60
2022-09-22T07:54:28.655Z,6.10
2022-09-22T07:56:58.409Z,5.23
2022-09-22T07:59:27.647Z,6.60
2022-09-22T08:01:56.020Z,5.80
2022-09-22T08:04:26.430Z,5.93
2022-09-22T08:06:56.490Z,5.03
2022-09-22T08:09:28.158Z,7.43
2022-09-22T08:11:57.058Z,5.67
2022-09-22T08:14:25.261Z,4.43
2022-09-22T08:16:54.251Z,8.80
2022-09-22T08:19:24.472Z,7.10
2022-09-22T08:21:54.795Z,3.37
2022-09-22T08:24:23.931Z,5.33
2022-09-22T08:26:56.090Z,4.27
2022-09-22T08:29:24.710Z,3.37
2022-09-22T08:31:53.980Z,3.53
2022-09-22T08:34:22.628Z,3.50
2022-09-22T08:36:50.635Z,4.40
2022-09-22T08:39:20.015Z,5.00
2022-09-22T08:42:07.963Z,5.07
2022-09-22T08:44:42.250Z,3.80
2022-09-22T08:47:38.978Z,4.00
2022-09-22T08:50:55.842Z,3.03
2022-09-22T08:53:23.917Z,2.77
2022-09-22T08:56:05.246Z,3.07
2022-09-22T08:58:44.545Z,2.60
2022-09-22T09:01:30.772Z,4.07
2022-09-22T09:04:32.232Z,2.23
2022-09-22T09:07:10.305Z,1.97
2022-09-22T09:09:53.759Z,2.77
2022-09-22T09:13:05.039Z,2.50
2022-09-22T09:15:51.127Z,3.53
2022-09-22T09:18:26.198Z,1.57
2022-09-22T09:20:55.322Z,3.17
2022-09-22T09:26:20.063Z,5.20
2022-09-22T09:28:53.470Z,1.17
2022-09-22T09:31:34.301Z,3.30
2022-09-22T09:34:06.073Z,2.40
2022-09-22T09:36:38.985Z,3.07
2022-09-22T09:39:15.945Z,2.80
2022-09-22T09:41:47.791Z,1.73
2022-09-22T09:44:25.530Z,2.53
2022-09-22T09:47:03.377Z,3.00
2022-09-22T09:49:31.801Z,0.90
2022-09-22T09:52:03.093Z,1.70
2022-09-22T09:54:31.099Z,2.10
2022-09-22T09:57:06.223Z,1.27
2022-09-22T09:59:53.099Z,1.17
2022-09-22T10:02:27.373Z,1.93
2022-09-22T10:04:58.473Z,1.17
2022-09-22T10:10:32.380Z,1.23
2022-09-22T10:13:32.615Z,2.13
2022-09-22T10:16:21.112Z,1.47
2022-09-22T10:18:52.410Z,1.27
2022-09-22T10:21:23.396Z,0.93
2022-09-22T10:23:53.433Z,1.17
2022-09-22T10:26:26.383Z,0.80
2022-09-22T10:29:18.976Z,0.83
2022-09-22T10:32:14.833Z,1.10
2022-09-22T10:37:26.354Z,1.60
2022-09-22T10:39:57.335Z,2.43
2022-09-22T10:42:36.945Z,0.97
2022-09-22T10:45:11.140Z,1.23
2022-09-22T10:47:57.197Z,0.70
2022-09-22T10:50:42.504Z,1.97
2022-09-22T10:53:31.952Z,0.60
2022-09-22T10:56:13.035Z,2.00
2022-09-22T10:59:15.744Z,0.93
2022-09-22T11:01:57.891Z,1.27
2022-09-22T11:04:42.812Z,1.10
2022-09-22T11:07:52.162Z,1.93
2022-09-22T11:10:50.213Z,0.90
2022-09-22T11:13:34.318Z,0.70
2022-09-22T11:16:34.210Z,1.07
2022-09-22T11:19:29.483Z,1.10
2022-09-22T11:22:22.209Z,0.97
2022-09-22T11:25:07.178Z,1.30
2022-09-22T11:27:54.487Z,2.13
2022-09-22T11:30:24.085Z,3.90
2022-09-22T11:33:22.734Z,2.50
2022-09-22T11:36:01.444Z,1.07
2022-09-22T11:39:01.935Z,1.80
2022-09-22T11:41:45.227Z,1.37
2022-09-22T11:44:41.767Z,1.97
2022-09-22T11:47:59.615Z,2.27
2022-09-22T11:50:51.598Z,1.33
2022-09-22T11:53:35.044Z,2.30
2022-09-22T11:56:28.256Z,2.20
2022-09-22T11:59:05.280Z,0.73
2022-09-22T12:01:40.191Z,0.80
2022-09-22T12:04:21.354Z,1.23
2022-09-22T12:06:56.774Z,0.83
2022-09-22T12:09:38.830Z,1.23
2022-09-22T12:12:13.194Z,2.93
2022-09-22T12:14:43.523Z,1.90
2022-09-22T12:17:21.439Z,0.73
2022-09-22T12:20:08.240Z,0.60
2022-09-22T12:22:57.854Z,1.53
2022-09-22T12:25:49.708Z,3.30
2022-09-22T12:28:25.698Z,0.80
2022-09-22T12:31:05.844Z,1.53
2022-09-22T12:33:38.024Z,2.10
2022-09-22T12:36:07.800Z,0.87
2022-09-22T12:38:36.119Z,1.07
2022-09-22T12:41:05.005Z,0.73
2022-09-22T12:43:35.789Z,0.87
2022-09-22T12:46:21.898Z,3.80
2022-09-22T12:48:50.129Z,1.80
2022-09-22T12:51:34.390Z,1.20
2022-09-22T12:54:39.906Z,0.77
2022-09-22T12:57:45.642Z,0.80
2022-09-22T13:00:36.554Z,1.70
2022-09-22T13:06:02.802Z,0.47
2022-09-22T13:09:21.318Z,1.00
2022-09-22T13:12:28.073Z,2.43
2022-09-22T13:15:19.628Z,0.80
2022-09-22T13:17:49.392Z,0.83
2022-09-22T13:20:27.108Z,1.10
2022-09-22T13:23:05.781Z,0.73
2022-09-22T13:25:35.004Z,1.27
2022-09-22T13:28:14.435Z,0.80
2022-09-22T13:30:45.002Z,1.23
2022-09-22T13:33:22.571Z,1.27
2022-09-22T13:35:59.783Z,0.80
2022-09-22T13:38:29.604Z,1.00
2022-09-22T13:40:57.757Z,2.50
2022-09-22T13:43:34.819Z,0.90
2022-09-22T13:46:04.808Z,2.50
2022-09-22T13:48:36.630Z,2.57
2022-09-22T13:51:09.030Z,0.80
2022-09-22T13:53:39.383Z,1.00
2022-09-22T13:56:21.418Z,1.00
2022-09-22T13:58:52.653Z,1.80
2022-09-22T14:01:25.006Z,1.50
2022-09-22T14:03:54.406Z,1.43
2022-09-22T14:06:25.301Z,1.73
2022-09-22T14:08:55.964Z,0.87
2022-09-22T14:11:28.202Z,0.90
2022-09-22T14:14:01.887Z,0.70
2022-09-22T14:16:35.781Z,0.83
2022-09-22T14:19:08.464Z,2.10
2022-09-22T14:21:45.881Z,1.47
2022-09-22T14:24:15.754Z,0.77
2022-09-22T14:26:47.976Z,1.97
2022-09-22T14:29:24.647Z,0.80
2022-09-22T14:31:57.466Z,0.63
2022-09-22T14:34:31.143Z,2.30
2022-09-22T14:37:05.904Z,0.60
2022-09-22T14:39:35.280Z,0.50
2022-09-22T14:42:17.338Z,1.83
2022-09-22T14:44:48.331Z,1.13
2022-09-22T14:47:26.945Z,1.00
2022-09-22T14:50:14.314Z,0.83
2022-09-22T14:52:52.687Z,1.57
2022-09-22T14:55:31.369Z,1.53
2022-09-22T14:58:05.428Z,1.07
2022-09-22T15:00:52.079Z,0.80
2022-09-22T15:03:25.688Z,0.83
2022-09-22T15:05:54.234Z,4.47
2022-09-22T15:08:27.784Z,1.13
2022-09-22T15:10:59.691Z,0.70
2022-09-22T15:13:32.425Z,0.60
2022-09-22T15:16:00.687Z,0.93
2022-09-22T15:18:30.945Z,1.00
2022-09-22T15:21:06.079Z,1.30
2022-09-22T15:23:40.945Z,3.00
2022-09-22T15:26:21.714Z,1.10
2022-09-22T15:28:54.574Z,2.87
2022-09-22T15:31:27.242Z,1.63
2022-09-22T15:33:56.228Z,1.10
2022-09-22T15:36:25.676Z,1.40
2022-09-22T15:38:59.571Z,1.53
2022-09-22T15:41:29.029Z,1.50
2022-09-22T15:43:57.465Z,0.90
2022-09-22T15:46:33.712Z,1.23
2022-09-22T15:49:08.824Z,1.77
2022-09-22T15:51:36.875Z,1.23
2022-09-22T15:54:11.242Z,1.43
2022-09-22T15:56:41.293Z,2.67
2022-09-22T15:59:17.955Z,0.90
2022-09-22T16:01:46.163Z,1.90
2022-09-22T16:04:14.346Z,0.80
2022-09-22T16:06:48.059Z,1.80
2022-09-22T16:09:18.233Z,1.27
2022-09-22T16:11:48.435Z,2.03
2022-09-22T16:14:16.661Z,1.83
2022-09-22T16:16:45.220Z,1.20
2022-09-22T16:19:13.217Z,2.07
2022-09-22T16:21:52.692Z,0.80
2022-09-22T16:24:22.616Z,1.40
2022-09-22T16:26:52.569Z,1.27
2022-09-22T16:29:20.662Z,1.43
2022-09-22T16:31:49.270Z,2.50
2022-09-22T16:34:17.335Z,1.00
2022-09-22T16:36:46.191Z,0.70
2022-09-22T16:39:14.379Z,1.17
2022-09-22T16:41:47.070Z,1.30
2022-09-22T16:44:16.812Z,2.30
2022-09-22T16:46:45.005Z,0.77
2022-09-22T16:49:16.268Z,1.57
2022-09-22T16:51:49.178Z,1.00
2022-09-22T16:54:18.552Z,1.00
2022-09-22T16:56:49.519Z,1.27
2022-09-22T16:59:21.243Z,4.17
2022-09-22T17:01:49.964Z,1.80
2022-09-22T17:04:19.410Z,14.80
2022-09-22T17:06:48.044Z,3.60
2022-09-22T17:09:16.939Z,1.40
2022-09-22T17:11:47.815Z,1.70
2022-09-22T17:14:21.038Z,0.80
2022-09-22T17:16:51.900Z,2.80
2022-09-22T17:19:21.813Z,2.13
2022-09-22T17:21:51.934Z,1.57
2022-09-22T17:24:20.803Z,1.30
2022-09-22T17:26:52.076Z,3.60
2022-09-22T17:29:24.682Z,3.00
2022-09-22T17:31:56.437Z,1.07
2022-09-22T17:34:25.088Z,1.17
2022-09-22T17:36:55.328Z,2.53
2022-09-22T17:39:24.292Z,1.90
2022-09-22T17:41:52.828Z,2.17
2022-09-22T17:44:23.115Z,1.40
2022-09-22T17:47:10.940Z,2.90
2022-09-22T17:49:57.407Z,6.50
2022-09-22T17:52:43.910Z,17.83
2022-09-22T17:55:21.767Z,20.20
2022-09-22T17:57:52.673Z,15.63
2022-09-22T18:00:24.438Z,13.13
2022-09-22T18:02:54.216Z,10.33
2022-09-22T18:05:26.590Z,9.80
2022-09-22T18:07:58.212Z,7.63
2022-09-22T18:10:32.351Z,7.10
2022-09-22T18:13:01.438Z,6.90
2022-09-22T18:15:30.808Z,4.30
2022-09-22T18:17:58.923Z,3.77
2022-09-22T18:20:27.771Z,4.77
2022-09-22T18:22:57.763Z,5.33
2022-09-22T18:25:49.899Z,1.57
2022-09-22T18:28:23.947Z,6.50
2022-09-22T18:30:54.285Z,1.10
2022-09-22T18:33:22.806Z,2.10
2022-09-22T18:35:50.808Z,1.43
2022-09-22T18:38:19.728Z,4.93
2022-09-22T18:40:51.427Z,2.63
2022-09-22T18:43:19.499Z,8.97
2022-09-22T18:45:47.642Z,3.97
2022-09-22T18:48:18.265Z,2.07
2022-09-22T18:50:47.131Z,4.17
2022-09-22T18:53:17.891Z,2.43
2022-09-22T18:55:47.334Z,4.00
2022-09-22T18:58:15.341Z,7.77
2022-09-22T19:00:44.312Z,10.77
2022-09-22T19:03:13.143Z,6.27
2022-09-22T19:05:42.440Z,6.03
2022-09-22T19:08:11.206Z,8.37
2022-09-22T19:10:39.205Z,5.30
2022-09-22T19:13:07.725Z,3.77
2022-09-22T19:15:36.509Z,3.37
2022-09-22T19:18:04.872Z,3.50
2022-09-22T19:20:32.886Z,3.30
2022-09-22T19:23:03.659Z,4.33
2022-09-22T19:25:32.198Z,2.43
2022-09-22T19:28:01.592Z,2.27
2022-09-22T19:30:31.468Z,2.33
2022-09-22T19:33:00.385Z,2.17
2022-09-22T19:35:29.421Z,2.00
2022-09-22T19:37:57.483Z,2.87
2022-09-22T19:40:26.891Z,2.10
2022-09-22T19:42:55.568Z,3.27
2022-09-22T19:45:24.934Z,3.73
2022-09-22T19:47:56.202Z,3.27
2022-09-22T19:50:25.398Z,3.63
2022-09-22T19:52:53.451Z,2.43
2022-09-22T19:55:22.003Z,2.63
2022-09-22T19:57:52.437Z,6.20
2022-09-22T20:00:25.794Z,2.90
2022-09-22T20:02:58.355Z,1.87
2022-09-22T20:05:30.188Z,5.00
2022-09-22T20:07:58.278Z,3.20
2022-09-22T20:10:26.739Z,3.43
2022-09-22T20:12:56.613Z,2.30
2022-09-22T20:15:25.180Z,2.97
2022-09-22T20:17:54.077Z,3.03
2022-09-22T20:20:25.159Z,2.57
2022-09-22T20:23:00.358Z,3.37
2022-09-22T20:25:31.378Z,3.40
2022-09-22T20:28:00.981Z,3.53
2022-09-22T20:30:29.006Z,2.50
2022-09-22T20:32:57.073Z,2.53
2022-09-22T20:35:25.248Z,5.10
2022-09-22T20:37:59.211Z,1.50
2022-09-22T20:40:27.855Z,3.13
2022-09-22T20:42:55.878Z,4.17
2022-09-22T20:45:26.233Z,2.27
2022-09-22T20:47:56.034Z,4.23
2022-09-22T20:50:24.062Z,2.13
2022-09-22T20:52:52.069Z,3.47
2022-09-22T20:55:20.334Z,1.77
2022-09-22T20:57:48.354Z,4.77
2022-09-22T21:00:16.753Z,1.97
2022-09-22T21:02:47.273Z,4.77
2022-09-22T21:05:15.634Z,4.53
2022-09-22T21:07:43.619Z,3.50
2022-09-22T21:10:29.217Z,4.23
2022-09-22T21:12:57.577Z,2.70
2022-09-22T21:15:25.658Z,4.17
2022-09-22T21:17:54.976Z,3.77
2022-09-22T21:20:23.166Z,4.63
2022-09-22T21:22:52.496Z,1.93
2022-09-22T21:25:20.628Z,2.30
2022-09-22T21:27:48.630Z,3.13
2022-09-22T21:30:16.803Z,4.97
2022-09-22T21:32:45.001Z,1.90
2022-09-22T21:35:16.709Z,4.70
2022-09-22T21:37:45.043Z,2.50
2022-09-22T21:40:13.318Z,2.47
2022-09-22T21:42:41.411Z,3.20
2022-09-22T21:45:10.613Z,3.87
2022-09-22T21:47:38.611Z,2.47
2022-09-22T21:50:08.200Z,4.53
2022-09-22T21:52:38.439Z,3.50
2022-09-22T21:55:07.943Z,6.30
2022-09-22T21:57:36.167Z,5.00
2022-09-22T22:00:07.653Z,3.60
2022-09-22T22:02:54.089Z,2.13
2022-09-22T22:05:22.115Z,3.83
2022-09-22T22:07:51.498Z,4.73
2022-09-22T22:10:19.594Z,4.47
2022-09-22T22:12:47.724Z,2.97
2022-09-22T22:15:16.023Z,4.87
2022-09-22T22:17:44.017Z,3.80
2022-09-22T22:20:12.083Z,6.77
2022-09-22T22:22:40.123Z,5.33
2022-09-22T22:25:18.354Z,4.20
2022-09-22T22:27:46.526Z,2.80
2022-09-22T22:30:14.655Z,4.97
2022-09-22T22:32:43.004Z,3.60
2022-09-22T22:35:11.567Z,4.13
2022-09-22T22:37:39.875Z,4.13
2022-09-22T22:40:10.520Z,5.73
2022-09-22T22:42:38.559Z,6.37
2022-09-22T22:45:07.475Z,5.53
2022-09-22T22:47:35.434Z,5.40
2022-09-22T22:50:03.468Z,3.97
2022-09-22T22:52:31.476Z,4.87
2022-09-22T22:54:59.536Z,3.83
2022-09-22T22:57:28.905Z,3.83
2022-09-22T22:59:57.948Z,3.73
2022-09-22T23:02:26.145Z,4.67
2022-09-22T23:04:54.197Z,3.27
2022-09-22T23:07:22.426Z,4.00
2022-09-22T23:10:05.950Z,4.23
2022-09-22T23:12:36.064Z,5.57
2022-09-22T23:15:04.807Z,3.97
2022-09-22T23:17:33.285Z,4.40
2022-09-22T23:20:01.265Z,5.33
2022-09-22T23:22:30.518Z,4.50
2022-09-22T23:24:58.562Z,4.23
2022-09-22T23:27:27.167Z,3.63
2022-09-22T23:29:57.244Z,5.63
2022-09-22T23:32:25.568Z,4.03
2022-09-22T23:34:53.685Z,6.20
2022-09-22T23:37:24.705Z,3.67
2022-09-22T23:39:53.178Z,3.50
2022-09-22T23:42:21.479Z,4.20
2022-09-22T23:44:49.484Z,6.07
2022-09-22T23:47:18.955Z,4.43
2022-09-22T23:49:47.428Z,4.40
2022-09-22T23:52:15.378Z,4.20
2022-09-22T23:54:44.656Z,4.37
2022-09-22T23:57:12.706Z,3.77
2022-09-22T23:59:40.690Z,7.80
